createdAt,value
2018-03-17T00:01:28.458Z,23.27
2018-03-17T00:03:57.900Z,18.33
2018-03-17T00:06:26.224Z,20.03
2018-03-17T00:08:54.544Z,23.10
2018-03-17T00:11:22.928Z,23.20
2018-03-17T00:13:51.256Z,23.07
2018-03-17T00:16:20.482Z,20.90
2018-03-17T00:18:48.896Z,20.20
2018-03-17T00:21:17.253Z,18.57
2018-03-17T00:23:45.576Z,15.37
2018-03-17T00:26:13.954Z,19.93
2018-03-17T00:28:42.288Z,27.20
2018-03-17T00:31:10.617Z,18.73
2018-03-17T00:33:39.021Z,19.90
2018-03-17T00:36:07.409Z,17.57
2018-03-17T00:38:36.488Z,16.67
2018-03-17T00:41:04.829Z,14.37
2018-03-17T00:43:33.150Z,26.00
2018-03-17T00:46:01.488Z,14.40
2018-03-17T00:48:32.739Z,17.47
2018-03-17T00:51:01.464Z,18.17
2018-03-17T00:53:30.801Z,18.03
2018-03-17T00:55:59.112Z,20.93
2018-03-17T00:58:28.095Z,14.63
2018-03-17T01:00:56.436Z,15.80
2018-03-17T01:03:24.761Z,20.80
2018-03-17T01:05:53.172Z,16.90
2018-03-17T01:08:21.484Z,19.70
2018-03-17T01:10:49.824Z,17.40
2018-03-17T01:13:18.532Z,16.30
2018-03-17T01:15:47.603Z,28.37
2018-03-17T01:18:15.951Z,20.00
2018-03-17T01:20:44.463Z,23.70
2018-03-17T01:23:12.788Z,20.40
2018-03-17T01:25:41.117Z,20.88
2018-03-17T01:28:09.556Z,26.75
2018-03-17T01:30:38.163Z,23.83
2018-03-17T01:33:06.798Z,20.37
2018-03-17T01:35:35.773Z,16.90
2018-03-17T01:38:04.100Z,18.37
2018-03-17T01:40:32.416Z,19.50
2018-03-17T01:43:00.757Z,23.60
2018-03-17T01:45:29.696Z,19.87
2018-03-17T01:47:58.136Z,14.90
2018-03-17T01:50:26.460Z,17.48
2018-03-17T01:52:54.781Z,20.23
2018-03-17T01:55:23.138Z,17.43
2018-03-17T01:57:51.448Z,16.80
2018-03-17T02:00:19.764Z,25.17
2018-03-17T02:02:48.159Z,26.75
2018-03-17T02:05:17.681Z,17.83
2018-03-17T02:07:46.016Z,26.33
2018-03-17T02:10:14.384Z,21.40
2018-03-17T02:12:42.714Z,21.43
2018-03-17T02:15:11.068Z,20.03
2018-03-17T02:17:39.435Z,18.87
2018-03-17T02:20:08.948Z,22.93
2018-03-17T02:22:37.268Z,18.97
2018-03-17T02:25:05.620Z,22.27
2018-03-17T02:27:33.933Z,18.00
2018-03-17T02:30:02.265Z,27.10
2018-03-17T02:32:30.625Z,22.00
2018-03-17T02:34:58.948Z,21.23
2018-03-17T02:37:28.243Z,18.23
2018-03-17T02:39:56.741Z,23.27
2018-03-17T02:42:25.510Z,19.23
2018-03-17T02:44:53.860Z,19.13
2018-03-17T02:47:22.220Z,26.17
2018-03-17T02:49:50.557Z,20.73
2018-03-17T02:52:18.933Z,17.67
2018-03-17T02:54:47.271Z,16.30
2018-03-17T02:57:16.384Z,16.85
2018-03-17T02:59:45.133Z,24.53
2018-03-17T03:02:13.461Z,17.73
2018-03-17T03:04:41.800Z,21.63
2018-03-17T03:07:11.257Z,22.60
2018-03-17T03:09:39.584Z,19.05
2018-03-17T03:12:07.915Z,16.73
2018-03-17T03:14:36.417Z,10.53
2018-03-17T03:17:04.736Z,18.07
2018-03-17T03:19:33.084Z,18.07
2018-03-17T03:22:01.639Z,20.40
2018-03-17T03:24:29.953Z,14.27
2018-03-17T03:26:58.019Z,18.70
2018-03-17T03:29:26.752Z,14.53
2018-03-17T03:31:55.096Z,16.27
2018-03-17T03:34:23.432Z,19.30
2018-03-17T03:36:52.080Z,12.93
2018-03-17T03:39:20.723Z,13.73
2018-03-17T03:41:49.104Z,15.47
2018-03-17T03:44:17.437Z,10.70
2018-03-17T03:46:45.758Z,16.57
2018-03-17T03:49:15.100Z,13.27
2018-03-17T03:51:43.440Z,15.10
2018-03-17T03:54:11.797Z,15.50
2018-03-17T03:56:40.203Z,18.20
2018-03-17T03:59:08.589Z,18.97
2018-03-17T04:01:36.923Z,16.20
2018-03-17T04:04:05.260Z,15.23
2018-03-17T04:06:33.758Z,13.03
2018-03-17T04:09:03.556Z,17.00
2018-03-17T04:11:32.651Z,12.00
2018-03-17T04:14:01.741Z,13.93
2018-03-17T04:16:30.165Z,20.90
2018-03-17T04:18:58.533Z,18.67
2018-03-17T04:21:26.876Z,16.63
2018-03-17T04:23:55.218Z,19.57
2018-03-17T04:26:23.533Z,11.57
2018-03-17T04:28:51.933Z,17.73
2018-03-17T04:31:21.088Z,16.50
2018-03-17T04:33:49.495Z,20.03
2018-03-17T04:36:17.821Z,19.73
2018-03-17T04:38:46.240Z,25.50
2018-03-17T04:41:14.551Z,34.63
2018-03-17T04:43:43.404Z,40.87
2018-03-17T04:46:11.759Z,37.53
2018-03-17T04:48:40.090Z,32.67
2018-03-17T04:51:08.432Z,28.67
2018-03-17T04:53:36.880Z,44.70
2018-03-17T04:56:05.238Z,38.80
2018-03-17T04:58:33.569Z,29.60
2018-03-17T05:01:02.072Z,31.10
2018-03-17T05:03:30.401Z,41.10
2018-03-17T05:05:58.732Z,36.38
2018-03-17T05:08:27.125Z,35.53
2018-03-17T05:10:55.473Z,37.13
2018-03-17T05:13:23.792Z,40.40
2018-03-17T05:15:52.163Z,28.77
2018-03-17T05:18:20.480Z,36.70
2018-03-17T05:20:48.804Z,25.77
2018-03-17T05:23:17.209Z,20.67
2018-03-17T05:25:45.527Z,23.30
2018-03-17T05:28:13.848Z,15.63
2018-03-17T05:30:42.218Z,22.67
2018-03-17T05:33:10.541Z,18.57
2018-03-17T05:35:39.181Z,22.77
2018-03-17T05:38:08.323Z,19.20
2018-03-17T05:40:36.660Z,20.27
2018-03-17T05:43:05.561Z,22.93
2018-03-17T05:45:33.883Z,23.47
2018-03-17T05:48:02.202Z,18.00
2018-03-17T05:50:31.320Z,16.30
2018-03-17T05:53:02.031Z,23.73
2018-03-17T05:55:30.372Z,16.63
2018-03-17T05:57:58.696Z,17.60
2018-03-17T06:00:27.087Z,16.43
2018-03-17T06:02:55.970Z,24.03
2018-03-17T06:05:24.304Z,22.90
2018-03-17T06:07:52.664Z,17.33
2018-03-17T06:10:21.005Z,19.20
2018-03-17T06:12:49.338Z,19.80
2018-03-17T06:15:17.698Z,23.63
2018-03-17T06:17:46.064Z,23.23
2018-03-17T06:20:14.660Z,24.30
2018-03-17T06:22:42.976Z,21.43
2018-03-17T06:25:11.307Z,25.50
2018-03-17T06:27:39.652Z,31.90
2018-03-17T06:30:07.978Z,25.43
2018-03-17T06:32:36.320Z,25.20
2018-03-17T06:35:05.404Z,30.40
2018-03-17T06:37:34.504Z,26.60
2018-03-17T06:40:03.588Z,33.40
2018-03-17T06:42:33.234Z,28.60
2018-03-17T06:45:01.549Z,28.10
2018-03-17T06:47:29.865Z,28.50
2018-03-17T06:49:58.342Z,36.73
2018-03-17T06:52:26.653Z,27.20
2018-03-17T06:54:55.016Z,29.07
2018-03-17T06:57:23.340Z,26.13
2018-03-17T06:59:51.682Z,31.40
2018-03-17T07:02:20.372Z,33.10
2018-03-17T07:04:48.697Z,32.80
2018-03-17T07:07:17.034Z,34.10
2018-03-17T07:09:45.405Z,31.93
2018-03-17T07:12:13.718Z,35.43
2018-03-17T07:14:42.040Z,36.00
2018-03-17T07:17:10.409Z,33.43
2018-03-17T07:19:38.738Z,34.50
2018-03-17T07:22:07.610Z,30.87
2018-03-17T07:24:36.009Z,33.27
2018-03-17T07:27:04.333Z,39.43
2018-03-17T07:29:32.721Z,30.43
2018-03-17T07:32:01.138Z,35.97
2018-03-17T07:34:29.449Z,30.77
2018-03-17T07:36:57.775Z,41.07
2018-03-17T07:39:26.281Z,36.33
2018-03-17T07:41:54.615Z,37.27
2018-03-17T07:44:22.936Z,46.70
2018-03-17T07:46:51.324Z,34.20
2018-03-17T07:49:19.640Z,35.10
2018-03-17T07:51:48.732Z,33.73
2018-03-17T07:54:18.479Z,29.23
2018-03-17T07:56:46.806Z,28.93
2018-03-17T07:59:15.133Z,35.87
2018-03-17T08:01:43.476Z,30.93
2018-03-17T08:04:12.557Z,31.30
2018-03-17T08:06:41.681Z,29.43
2018-03-17T08:09:10.008Z,38.50
2018-03-17T08:11:38.571Z,35.40
2018-03-17T08:14:06.892Z,30.67
2018-03-17T08:16:35.972Z,33.50
2018-03-17T08:19:04.323Z,33.90
2018-03-17T08:21:32.651Z,44.33
2018-03-17T08:24:01.015Z,32.40
2018-03-17T08:26:29.356Z,33.50
2018-03-17T08:28:57.724Z,32.67
2018-03-17T08:31:26.097Z,36.27
2018-03-17T08:33:54.414Z,37.87
2018-03-17T08:36:23.241Z,44.03
2018-03-17T08:38:51.640Z,43.57
2018-03-17T08:41:19.965Z,35.20
2018-03-17T08:43:50.508Z,41.87
2018-03-17T08:46:19.652Z,38.60
2018-03-17T08:48:48.705Z,40.47
2018-03-17T08:51:17.782Z,41.60
2018-03-17T08:53:46.269Z,40.30
2018-03-17T08:56:14.649Z,26.47
2018-03-17T08:58:43.389Z,37.30
2018-03-17T09:01:11.734Z,27.37
2018-03-17T09:03:40.133Z,34.97
2018-03-17T09:06:08.453Z,26.23
2018-03-17T09:08:36.818Z,37.70
2018-03-17T09:11:05.160Z,28.80
2018-03-17T09:13:33.498Z,31.87
2018-03-17T09:16:01.876Z,31.37
2018-03-17T09:18:30.211Z,39.20
2018-03-17T09:20:58.533Z,38.73
2018-03-17T09:23:26.873Z,32.87
2018-03-17T09:25:55.189Z,34.83
2018-03-17T09:28:23.550Z,41.30
2018-03-17T09:30:51.975Z,34.13
2018-03-17T09:33:20.282Z,44.40
2018-03-17T09:35:49.396Z,35.13
2018-03-17T09:38:18.133Z,37.63
2018-03-17T09:40:47.426Z,34.43
2018-03-17T09:43:15.820Z,35.37
2018-03-17T09:45:44.548Z,33.40
2018-03-17T09:48:13.702Z,40.77
2018-03-17T09:50:42.828Z,35.57
2018-03-17T09:53:11.145Z,35.60
2018-03-17T09:55:41.173Z,28.90
2018-03-17T09:58:09.580Z,33.20
2018-03-17T10:00:37.897Z,41.80
2018-03-17T10:03:06.212Z,29.77
2018-03-17T10:05:35.677Z,38.27
2018-03-17T10:08:04.008Z,40.00
2018-03-17T10:10:33.516Z,40.57
2018-03-17T10:13:01.935Z,35.50
2018-03-17T10:15:30.312Z,26.67
2018-03-17T10:17:58.656Z,47.63
2018-03-17T10:20:27.657Z,32.37
2018-03-17T10:22:56.271Z,36.60
2018-03-17T10:25:24.611Z,39.23
2018-03-17T10:27:53.012Z,37.50
2018-03-17T10:30:22.092Z,35.73
2018-03-17T10:32:50.413Z,40.80
2018-03-17T10:35:18.994Z,32.20
2018-03-17T10:37:47.388Z,41.67
2018-03-17T10:40:15.692Z,41.73
2018-03-17T10:42:45.728Z,38.30
2018-03-17T10:45:14.887Z,39.90
2018-03-17T10:47:44.155Z,41.97
2018-03-17T10:50:13.053Z,38.30
2018-03-17T10:52:41.365Z,37.90
2018-03-17T10:55:09.760Z,56.53
2018-03-17T10:57:38.027Z,41.43
2018-03-17T11:00:06.258Z,38.17
2018-03-17T11:02:39.966Z,39.60
2018-03-17T11:05:08.593Z,36.70
2018-03-17T11:07:36.817Z,40.37
2018-03-17T11:10:05.145Z,38.10
2018-03-17T11:12:33.461Z,39.80
2018-03-17T11:15:02.810Z,56.40
2018-03-17T11:17:32.596Z,42.53
2018-03-17T11:20:00.925Z,41.40
2018-03-17T11:22:29.801Z,42.83
2018-03-17T11:25:03.882Z,40.23
2018-03-17T11:27:32.223Z,43.97
2018-03-17T11:30:06.609Z,19.57
2018-03-17T11:32:40.548Z,37.23
2018-03-17T11:35:09.492Z,48.23
2018-03-17T11:37:38.465Z,28.97
2018-03-17T11:40:07.680Z,46.80
2018-03-17T11:42:36.727Z,41.30
2018-03-17T11:45:05.100Z,39.63
2018-03-17T11:47:33.544Z,44.53
2018-03-17T11:50:01.869Z,41.50
2018-03-17T11:52:30.408Z,42.73
2018-03-17T11:54:58.725Z,39.07
2018-03-17T11:57:27.809Z,26.47
2018-03-17T11:59:56.166Z,43.30
2018-03-17T12:02:24.905Z,46.87
2018-03-17T12:04:53.218Z,32.27
2018-03-17T12:07:22.408Z,39.87
2018-03-17T12:09:50.722Z,46.27
2018-03-17T12:12:19.809Z,47.40
2018-03-17T12:14:48.933Z,46.80
2018-03-17T12:17:17.261Z,44.17
2018-03-17T12:19:47.360Z,40.33
2018-03-17T12:22:15.726Z,38.30
2018-03-17T12:24:44.206Z,41.00
2018-03-17T12:27:12.513Z,38.07
2018-03-17T12:29:41.680Z,49.30
2018-03-17T12:32:10.533Z,40.43
2018-03-17T12:34:39.439Z,37.93
2018-03-17T12:37:07.777Z,39.70
2018-03-17T12:39:36.272Z,45.43
2018-03-17T12:42:04.744Z,39.47
2018-03-17T12:44:33.453Z,40.37
2018-03-17T12:47:02.324Z,41.20
2018-03-17T12:49:31.332Z,33.80
2018-03-17T12:52:00.412Z,39.67
2018-03-17T12:54:29.402Z,40.83
2018-03-17T12:56:57.717Z,29.97
2018-03-17T12:59:26.043Z,35.43
2018-03-17T13:01:55.121Z,42.50
2018-03-17T13:04:23.437Z,41.37
2018-03-17T13:06:51.876Z,41.00
2018-03-17T13:09:20.705Z,35.90
2018-03-17T13:11:49.021Z,42.60
2018-03-17T13:14:17.393Z,35.67
2018-03-17T13:16:45.701Z,35.57
2018-03-17T13:19:31.866Z,37.37
2018-03-17T13:22:00.827Z,36.40
2018-03-17T13:24:29.152Z,38.20
2018-03-17T13:27:15.088Z,38.40
2018-03-17T13:29:43.404Z,39.57
2018-03-17T13:32:29.324Z,34.00
2018-03-17T13:34:57.653Z,38.10
2018-03-17T13:37:38.103Z,25.33
2018-03-17T13:53:54.132Z,33.30
2018-03-17T13:56:22.473Z,36.40
2018-03-17T13:58:50.802Z,37.73
2018-03-17T14:01:19.180Z,38.50
2018-03-17T14:03:47.493Z,38.57
2018-03-17T14:06:15.802Z,41.77
2018-03-17T14:08:44.212Z,38.00
2018-03-17T14:11:12.516Z,29.80
2018-03-17T14:13:40.820Z,37.43
2018-03-17T14:16:09.196Z,24.40
2018-03-17T14:18:37.516Z,34.07
2018-03-17T14:21:05.834Z,41.23
2018-03-17T14:23:34.588Z,36.10
2018-03-17T14:26:03.034Z,35.90
2018-03-17T14:28:31.970Z,43.17
2018-03-17T14:31:00.639Z,34.13
2018-03-17T14:33:28.945Z,44.07
2018-03-17T14:35:58.800Z,30.93
2018-03-17T14:38:27.568Z,36.30
2018-03-17T14:40:56.855Z,38.40
2018-03-17T14:43:29.021Z,32.03
2018-03-17T14:45:58.004Z,39.80
2018-03-17T14:48:26.312Z,42.67
2018-03-17T14:50:54.700Z,34.50
2018-03-17T14:53:23.065Z,34.83
2018-03-17T14:55:51.489Z,37.73
2018-03-17T14:58:20.770Z,44.37
2018-03-17T15:00:49.900Z,39.73
2018-03-17T15:03:18.405Z,37.97
2018-03-17T15:05:47.371Z,41.10
2018-03-17T15:08:15.689Z,39.23
2018-03-17T15:10:44.008Z,46.37
2018-03-17T15:13:12.392Z,39.23
2018-03-17T15:15:40.708Z,37.10
2018-03-17T15:18:09.016Z,39.03
2018-03-17T15:20:38.383Z,39.77
2018-03-17T15:23:07.209Z,38.80
2018-03-17T15:25:35.585Z,32.77
2018-03-17T15:28:03.960Z,41.87
2018-03-17T15:30:32.268Z,33.23
2018-03-17T15:33:00.640Z,34.28
2018-03-17T15:35:30.429Z,35.10
2018-03-17T15:37:58.679Z,41.63
2018-03-17T15:40:26.997Z,34.57
2018-03-17T15:42:55.428Z,36.93
2018-03-17T15:45:24.389Z,38.23
2018-03-17T15:47:52.709Z,41.13
2018-03-17T15:50:21.501Z,41.67
2018-03-17T15:52:50.042Z,31.70
2018-03-17T15:55:18.912Z,45.33
2018-03-17T15:57:47.240Z,35.37
2018-03-17T16:00:16.403Z,30.77
2018-03-17T16:02:44.082Z,35.87
2018-03-17T16:05:12.701Z,37.73
2018-03-17T16:07:41.141Z,33.97
2018-03-17T16:10:10.143Z,42.37
2018-03-17T16:12:39.224Z,39.67
2018-03-17T16:15:08.533Z,34.87
2018-03-17T16:17:37.581Z,33.33
2018-03-17T16:20:06.678Z,37.73
2018-03-17T16:22:35.556Z,31.30
2018-03-17T16:25:03.883Z,34.73
2018-03-17T16:27:32.196Z,32.77
2018-03-17T16:30:00.566Z,35.07
2018-03-17T16:32:28.973Z,42.07
2018-03-17T16:34:58.056Z,43.13
2018-03-17T16:37:26.805Z,47.20
2018-03-17T16:39:55.132Z,41.27
2018-03-17T16:42:23.444Z,41.50
2018-03-17T16:44:51.804Z,38.67
2018-03-17T16:47:23.109Z,36.30
2018-03-17T16:49:51.469Z,18.73
2018-03-17T16:52:20.109Z,35.07
2018-03-17T16:54:48.429Z,39.43
2018-03-17T16:57:16.798Z,39.17
2018-03-17T16:59:45.112Z,40.13
2018-03-17T17:02:13.434Z,40.90
2018-03-17T17:04:42.574Z,28.73
2018-03-17T17:07:10.891Z,35.17
2018-03-17T17:09:39.229Z,32.45
2018-03-17T17:12:07.618Z,31.23
2018-03-17T17:14:35.943Z,44.73
2018-03-17T17:17:04.268Z,24.87
2018-03-17T17:19:32.992Z,26.60
2018-03-17T17:22:02.084Z,33.22
2018-03-17T17:24:31.354Z,32.60
2018-03-17T17:27:00.080Z,24.10
2018-03-17T17:29:29.064Z,27.47
2018-03-17T17:31:57.379Z,30.47
2018-03-17T17:34:26.144Z,21.57
2018-03-17T17:36:55.530Z,25.10
2018-03-17T17:39:23.840Z,30.47
2018-03-17T17:41:52.168Z,32.10
2018-03-17T17:44:20.537Z,28.50
2018-03-17T17:46:49.329Z,29.30
2018-03-17T17:49:17.649Z,28.60
2018-03-17T17:51:45.992Z,30.33
2018-03-17T17:54:14.340Z,30.40
2018-03-17T17:56:42.676Z,28.97
2018-03-17T17:59:11.063Z,24.70
2018-03-17T18:01:39.478Z,33.40
2018-03-17T18:04:08.532Z,25.97
2018-03-17T18:06:38.256Z,29.03
2018-03-17T18:09:06.588Z,28.07
2018-03-17T18:11:34.931Z,19.27
2018-03-17T18:14:03.569Z,27.73
2018-03-17T18:16:32.061Z,31.53
2018-03-17T18:19:00.366Z,22.47
2018-03-17T18:21:29.425Z,25.12
2018-03-17T18:23:57.769Z,28.77
2018-03-17T18:26:26.797Z,25.13
2018-03-17T18:28:55.750Z,26.50
2018-03-17T18:31:24.035Z,28.73
2018-03-17T18:33:52.564Z,26.50
2018-03-17T18:36:20.936Z,25.45
2018-03-17T18:38:49.284Z,28.23
2018-03-17T18:41:17.957Z,27.80
2018-03-17T18:43:46.268Z,25.93
2018-03-17T18:46:14.637Z,24.00
2018-03-17T18:48:42.997Z,29.48
2018-03-17T18:51:11.317Z,28.50
2018-03-17T18:53:40.760Z,29.08
2018-03-17T18:56:09.121Z,28.02
2018-03-17T18:58:37.438Z,24.50
2018-03-17T19:01:05.805Z,32.40
2018-03-17T19:03:34.617Z,30.27
2018-03-17T19:06:03.703Z,26.58
2018-03-17T19:08:32.056Z,28.45
2018-03-17T19:11:00.405Z,21.65
2018-03-17T19:13:28.765Z,29.45
2018-03-17T19:15:57.156Z,29.15
2018-03-17T19:18:25.701Z,28.75
2018-03-17T19:20:54.621Z,15.98
2018-03-17T19:23:23.048Z,24.27
2018-03-17T19:25:51.375Z,23.73
2018-03-17T19:28:20.549Z,24.48
2018-03-17T19:30:50.299Z,22.13
2018-03-17T19:33:18.626Z,27.80
2018-03-17T19:35:47.548Z,33.50
2018-03-17T19:38:16.175Z,22.60
2018-03-17T19:40:45.820Z,22.87
2018-03-17T19:43:14.140Z,26.67
2018-03-17T19:45:42.520Z,33.83
2018-03-17T19:48:11.291Z,29.83
2018-03-17T19:50:40.063Z,27.10
2018-03-17T19:53:10.353Z,20.67
2018-03-17T19:55:38.863Z,31.12
2018-03-17T19:58:07.648Z,32.95
2018-03-17T20:00:36.197Z,26.65
2018-03-17T20:03:05.208Z,21.30
2018-03-17T20:05:34.740Z,26.75
2018-03-17T20:08:04.030Z,34.22
2018-03-17T20:10:32.456Z,21.33
2018-03-17T20:13:00.786Z,29.73
2018-03-17T20:15:29.060Z,34.72
2018-03-17T20:17:57.419Z,33.15
2018-03-17T20:20:28.930Z,32.15
2018-03-17T20:22:57.347Z,27.23
2018-03-17T20:25:25.957Z,37.88
2018-03-17T20:27:54.350Z,31.35
2018-03-17T20:30:22.708Z,39.08
2018-03-17T20:32:51.041Z,34.55
2018-03-17T20:35:19.401Z,34.95
2018-03-17T20:37:48.472Z,31.15
2018-03-17T20:40:17.396Z,34.67
2018-03-17T20:42:47.340Z,30.37
2018-03-17T20:45:16.664Z,33.45
2018-03-17T20:47:45.012Z,36.67
2018-03-17T20:50:13.452Z,32.53
2018-03-17T20:52:42.803Z,32.45
2018-03-17T20:55:12.056Z,26.02
2018-03-17T20:57:40.484Z,37.03
2018-03-17T21:00:09.593Z,31.00
2018-03-17T21:02:38.537Z,32.22
2018-03-17T21:05:06.755Z,38.03
2018-03-17T21:07:35.277Z,38.33
2018-03-17T21:10:02.902Z,39.63
2018-03-17T21:12:31.812Z,29.30
2018-03-17T21:15:00.149Z,39.00
2018-03-17T21:17:28.592Z,29.33
2018-03-17T21:19:56.881Z,41.90
2018-03-17T21:22:25.228Z,41.58
2018-03-17T21:24:53.833Z,40.17
2018-03-17T21:27:22.164Z,37.45
2018-03-17T21:29:50.527Z,47.90
2018-03-17T21:32:18.857Z,35.58
2018-03-17T21:34:47.185Z,43.90
2018-03-17T21:37:16.858Z,40.30
2018-03-17T21:39:45.048Z,42.83
2018-03-17T21:42:14.121Z,44.40
2018-03-17T21:44:43.349Z,37.42
2018-03-17T21:47:12.453Z,42.60
2018-03-17T21:49:43.203Z,45.45
2018-03-17T21:52:12.965Z,37.92
2018-03-17T21:54:41.360Z,40.88
2018-03-17T21:57:09.653Z,43.80
2018-03-17T21:59:37.988Z,43.05
2018-03-17T22:02:08.523Z,35.90
2018-03-17T22:04:36.808Z,35.40
2018-03-17T22:07:06.004Z,41.08
2018-03-17T22:09:34.344Z,46.55
2018-03-17T22:12:02.867Z,46.45
2018-03-17T22:14:32.613Z,38.08
2018-03-17T22:17:02.307Z,39.10
2018-03-17T22:19:31.225Z,34.80
2018-03-17T22:22:00.584Z,48.10
2018-03-17T22:24:28.909Z,40.53
2018-03-17T22:27:00.449Z,45.70
2018-03-17T22:29:29.312Z,40.30
2018-03-17T22:31:58.508Z,49.47
2018-03-17T22:34:26.821Z,43.50
2018-03-17T22:36:55.373Z,47.75
2018-03-17T22:39:24.244Z,48.22
2018-03-17T22:41:52.569Z,51.10
2018-03-17T22:44:20.974Z,49.67
2018-03-17T22:46:49.657Z,40.50
2018-03-17T22:49:18.090Z,51.53
2018-03-17T22:51:46.412Z,43.55
2018-03-17T22:54:15.423Z,43.35
2018-03-17T22:56:44.643Z,51.53
2018-03-17T22:59:12.972Z,42.88
2018-03-17T23:01:41.789Z,41.08
2018-03-17T23:04:11.101Z,44.80
2018-03-17T23:06:39.537Z,36.88
2018-03-17T23:09:07.860Z,42.38
2018-03-17T23:11:36.771Z,42.00
2018-03-17T23:14:05.095Z,43.40
2018-03-17T23:16:33.490Z,39.13
2018-03-17T23:19:01.837Z,39.15
2018-03-17T23:21:30.181Z,44.65
2018-03-17T23:23:59.296Z,44.42
2018-03-17T23:26:27.618Z,45.78
2018-03-17T23:28:55.999Z,39.22
2018-03-17T23:31:24.813Z,39.95
2018-03-17T23:33:53.448Z,48.13
2018-03-17T23:36:22.029Z,49.13
2018-03-17T23:38:50.229Z,52.30
2018-03-17T23:41:18.554Z,51.40
2018-03-17T23:43:46.909Z,45.10
2018-03-17T23:46:16.057Z,42.17
2018-03-17T23:48:44.418Z,45.80
2018-03-17T23:51:12.759Z,49.05
2018-03-17T23:53:41.124Z,42.30
2018-03-17T23:56:09.480Z,42.92
2018-03-17T23:58:38.020Z,48.58
